Time;durP1;ratioP1;P1;durP2;ratioP2;P2;SDS_P1;SDS_P2;PMS_P1;PMS_P2;Temp;Humidity;BMP_temperature;BMP_pressure;BME280_temperature;BME280_humidity;BME280_pressure;Samples;Min_cycle;Max_cycle;Signal;HPM_P1;HPM_P2
2022/02/09 00:01:45;;;;;;;39.50;24.43;;;8.20;99.90;;;;;;5053087;28;20214;-93
2022/02/09 00:07:04;;;;;;;47.77;28.37;;;8.20;99.90;;;;;;5037866;28;20186;-91
2022/02/09 00:09:43;;;;;;;49.03;27.43;;;8.20;99.90;;;;;;5053788;28;20509;-93
2022/02/09 00:12:16;;;;;;;44.23;26.70;;;8.20;99.90;;;;;;5053173;28;20184;-93
2022/02/09 00:20:50;;;;;;;45.70;27.90;;;8.20;99.90;;;;;;5036901;28;20683;-92
2022/02/09 00:33:57;;;;;;;44.30;30.70;;;8.20;99.90;;;;;;5036900;28;20237;-93
2022/02/09 00:36:35;;;;;;;46.43;29.40;;;8.20;99.90;;;;;;5036644;28;20186;-93
2022/02/09 01:39:07;;;;;;;24.33;20.10;;;8.30;99.90;;;;;;5016450;28;20249;-93
2022/02/09 01:57:02;;;;;;;17.60;13.80;;;8.40;99.90;;;;;;5016062;28;20505;-92
2022/02/09 01:59:28;;;;;;;16.83;14.17;;;8.40;99.90;;;;;;5030906;28;20206;-92
2022/02/09 02:01:56;;;;;;;17.73;14.00;;;8.30;99.90;;;;;;5043680;28;20601;-93
2022/02/09 02:04:25;;;;;;;17.90;13.87;;;8.30;99.90;;;;;;5050074;28;20244;-92
2022/02/09 02:06:52;;;;;;;16.47;13.47;;;8.40;99.90;;;;;;5034230;28;20208;-92
2022/02/09 02:09:19;;;;;;;18.67;13.40;;;8.40;99.90;;;;;;5034244;28;20274;-92
2022/02/09 02:11:56;;;;;;;20.47;14.00;;;8.40;99.90;;;;;;5034075;28;20190;-93
2022/02/09 02:14:46;;;;;;;18.17;13.87;;;8.40;99.90;;;;;;5050970;28;20182;-93
2022/02/09 02:19:58;;;;;;;20.83;13.97;;;8.40;99.90;;;;;;5034851;28;20226;-94
2022/02/09 02:23:35;;;;;;;19.70;14.03;;;8.40;99.90;;;;;;5050902;28;20173;-92
2022/02/09 02:25:45;;;;;;;16.77;13.17;;;8.40;99.90;;;;;;5022062;28;20194;-92
2022/02/09 02:28:37;;;;;;;18.63;13.83;;;8.40;99.90;;;;;;5034115;28;20270;-92
2022/02/09 02:57:55;;;;;;;18.47;13.37;;;8.40;99.90;;;;;;5035274;28;20224;-93
2022/02/09 03:08:59;;;;;;;27.40;14.07;;;8.40;99.90;;;;;;5035453;28;20543;-94
2022/02/09 03:14:23;;;;;;;14.97;11.40;;;8.40;99.90;;;;;;5034072;28;20174;-93
2022/02/09 03:16:57;;;;;;;17.03;11.40;;;8.40;99.90;;;;;;5053102;28;20601;-93
2022/02/09 03:22:21;;;;;;;15.17;9.30;;;8.40;99.90;;;;;;5038379;28;20159;-92
2022/02/09 03:49:15;;;;;;;13.23;10.07;;;8.40;99.90;;;;;;5037988;28;20297;-91
2022/02/09 03:51:50;;;;;;;12.17;8.90;;;8.40;99.90;;;;;;5017050;28;20203;-91
2022/02/09 03:54:33;;;;;;;14.50;8.60;;;8.40;99.90;;;;;;5016993;28;20234;-91
2022/02/09 03:57:21;;;;;;;13.53;7.50;;;8.40;99.90;;;;;;5033435;28;20203;-94
2022/02/09 03:59:47;;;;;;;12.77;8.10;;;8.40;99.90;;;;;;5033388;28;20210;-94
2022/02/09 04:02:14;;;;;;;12.07;7.27;;;8.40;99.90;;;;;;5033394;28;20232;-94
2022/02/09 04:04:39;;;;;;;9.00;7.00;;;8.40;99.90;;;;;;5032997;28;20203;-92
2022/02/09 04:07:07;;;;;;;11.57;7.30;;;8.40;99.90;;;;;;5033119;28;20657;-92
2022/02/09 04:09:35;;;;;;;9.97;6.70;;;8.40;99.90;;;;;;5033262;28;20179;-91
2022/02/09 04:12:14;;;;;;;8.93;6.43;;;8.40;99.90;;;;;;5033209;28;20183;-91
2022/02/09 04:14:50;;;;;;;10.60;6.70;;;8.40;99.90;;;;;;5044944;28;20267;-90
2022/02/09 04:36:11;;;;;;;9.87;7.70;;;8.40;99.90;;;;;;5037402;28;20221;-95
2022/02/09 04:54:46;;;;;;;8.83;6.43;;;8.40;99.90;;;;;;5036743;28;20270;-92
2022/02/09 04:57:31;;;;;;;10.07;7.07;;;8.30;99.90;;;;;;5035766;28;20189;-92
2022/02/09 05:03:04;;;;;;;8.80;6.90;;;8.30;99.90;;;;;;5036627;28;20210;-92
2022/02/09 05:24:07;;;;;;;8.40;7.17;;;8.30;99.90;;;;;;5036424;28;20174;-91
2022/02/09 05:26:49;;;;;;;7.43;6.10;;;8.30;99.90;;;;;;5021345;28;20201;-91
2022/02/09 05:29:15;;;;;;;8.40;6.53;;;8.30;99.90;;;;;;5051176;28;20205;-91
2022/02/09 05:31:40;;;;;;;10.60;6.83;;;8.30;99.90;;;;;;5034837;28;20210;-92
2022/02/09 05:34:09;;;;;;;8.13;5.67;;;8.30;99.90;;;;;;5036080;28;20178;-91
2022/02/09 05:36:36;;;;;;;9.77;6.70;;;8.30;99.90;;;;;;5051613;28;20175;-91
2022/02/09 05:39:04;;;;;;;8.50;5.80;;;8.30;99.90;;;;;;5051805;28;20176;-92
2022/02/09 05:41:37;;;;;;;6.40;5.30;;;8.30;99.90;;;;;;5051612;28;20198;-93
2022/02/09 05:44:09;;;;;;;8.30;5.20;;;8.30;99.90;;;;;;5035729;28;20182;-91
2022/02/09 05:49:28;;;;;;;8.70;4.97;;;8.30;99.90;;;;;;5035816;28;20154;-91
2022/02/09 05:52:01;;;;;;;7.93;5.47;;;8.30;99.90;;;;;;5031404;28;20637;-90
2022/02/09 05:59:37;;;;;;;5.47;4.57;;;8.20;99.90;;;;;;5015728;28;20257;-91
2022/02/09 06:02:03;;;;;;;5.10;3.93;;;8.30;99.90;;;;;;5014772;28;20194;-91
2022/02/09 06:04:29;;;;;;;7.53;4.63;;;8.20;99.90;;;;;;5025281;28;20521;-91
2022/02/09 06:06:55;;;;;;;7.40;4.23;;;8.20;99.90;;;;;;5050710;28;20178;-93
2022/02/09 06:09:21;;;;;;;6.57;3.90;;;8.30;99.90;;;;;;5050766;28;20214;-93
2022/02/09 06:12:03;;;;;;;4.83;3.60;;;8.30;99.90;;;;;;5050883;28;20186;-94
2022/02/09 06:19:53;;;;;;;5.80;3.67;;;8.20;99.90;;;;;;5035024;28;20240;-94
2022/02/09 06:22:21;;;;;;;9.33;3.70;;;8.20;99.90;;;;;;5050842;28;20186;-93
2022/02/09 06:24:46;;;;;;;5.00;3.50;;;8.20;99.90;;;;;;5050453;28;20182;-94
2022/02/09 06:27:13;;;;;;;6.63;3.90;;;8.20;99.90;;;;;;5050623;28;20182;-93
2022/02/09 06:29:45;;;;;;;7.53;4.00;;;8.20;99.90;;;;;;5050222;28;20606;-91
2022/02/09 06:32:11;;;;;;;5.97;3.70;;;8.20;99.90;;;;;;5050426;28;20182;-91
2022/02/09 06:34:38;;;;;;;4.40;3.90;;;8.20;99.90;;;;;;5050416;28;20266;-91
2022/02/09 06:37:15;;;;;;;5.73;3.73;;;8.20;99.90;;;;;;5050581;28;20201;-91
2022/02/09 06:39:45;;;;;;;8.27;4.00;;;8.20;99.90;;;;;;5051409;28;20233;-91
2022/02/09 06:42:22;;;;;;;5.53;3.57;;;8.20;99.90;;;;;;5046262;28;20281;-91
2022/02/09 06:44:55;;;;;;;4.30;3.57;;;8.20;99.90;;;;;;5049860;28;20188;-91
2022/02/09 06:47:24;;;;;;;5.97;3.80;;;8.20;99.90;;;;;;5050756;28;20175;-92
2022/02/09 06:50:03;;;;;;;6.03;3.80;;;8.10;99.90;;;;;;5050774;28;20261;-92
2022/02/09 06:52:29;;;;;;;8.37;4.30;;;8.10;99.90;;;;;;5054703;28;20189;-91
2022/02/09 06:55:13;;;;;;;6.97;4.03;;;8.10;99.90;;;;;;5054339;28;20183;-91
2022/02/09 07:00:18;;;;;;;7.67;4.60;;;8.10;99.90;;;;;;5038683;28;20228;-90
2022/02/09 07:02:44;;;;;;;6.00;4.67;;;8.20;99.90;;;;;;5054471;28;20265;-91
2022/02/09 07:05:13;;;;;;;9.37;4.80;;;8.10;99.90;;;;;;5054178;28;20812;-91
2022/02/09 07:07:40;;;;;;;8.90;5.07;;;8.10;99.90;;;;;;5054320;28;20170;-91
2022/02/09 07:10:07;;;;;;;9.00;4.83;;;8.10;99.90;;;;;;5054181;28;20872;-91
2022/02/09 07:12:33;;;;;;;9.00;5.63;;;8.10;99.90;;;;;;5038561;28;20580;-91
2022/02/09 07:15:12;;;;;;;7.33;5.50;;;8.10;99.90;;;;;;5053734;28;20218;-93
2022/02/09 07:17:38;;;;;;;9.07;5.67;;;8.10;99.90;;;;;;5053942;28;20259;-91
2022/02/09 07:20:20;;;;;;;7.73;5.43;;;8.00;99.90;;;;;;5053990;28;20218;-93
2022/02/09 07:22:49;;;;;;;11.70;6.00;;;8.00;99.90;;;;;;5054062;28;20178;-92
2022/02/09 07:25:32;;;;;;;7.03;5.70;;;8.00;99.90;;;;;;5053594;28;20644;-93
2022/02/09 07:28:05;;;;;;;8.57;6.07;;;8.00;99.90;;;;;;5053842;28;20182;-89
2022/02/09 07:30:31;;;;;;;6.20;5.60;;;8.00;99.90;;;;;;5036793;28;20187;-91
2022/02/09 07:33:02;;;;;;;7.93;6.07;;;8.00;99.90;;;;;;5037026;28;20190;-90
2022/02/09 07:35:29;;;;;;;8.50;6.00;;;8.00;99.90;;;;;;5053475;28;20186;-90
2022/02/09 07:37:55;;;;;;;6.83;5.93;;;8.00;99.90;;;;;;5053665;28;20181;-90
2022/02/09 07:40:21;;;;;;;6.40;5.00;;;8.00;99.90;;;;;;5053399;28;20218;-90
2022/02/09 07:42:58;;;;;;;7.27;5.00;;;8.00;99.90;;;;;;5053758;28;20202;-92
2022/02/09 07:48:26;;;;;;;5.30;4.50;;;8.10;99.90;;;;;;5038177;28;20181;-92
2022/02/09 07:54:00;;;;;;;7.27;4.23;;;8.10;99.90;;;;;;4994552;28;20241;-90
2022/02/09 07:56:43;;;;;;;6.17;4.27;;;8.10;99.90;;;;;;5044290;28;20601;-90
2022/02/09 07:59:14;;;;;;;5.10;4.10;;;8.10;99.90;;;;;;5057460;28;20713;-92
2022/02/09 08:01:40;;;;;;;7.70;3.77;;;8.20;99.90;;;;;;5072308;28;20174;-92
2022/02/09 08:04:09;;;;;;;5.37;3.63;;;8.20;99.90;;;;;;5072670;28;20178;-93
2022/02/09 08:06:36;;;;;;;4.40;3.67;;;8.20;99.90;;;;;;5060088;28;20193;-93
2022/02/09 08:09:14;;;;;;;3.87;3.37;;;8.20;99.90;;;;;;5062805;28;20181;-92
2022/02/09 08:12:01;;;;;;;4.37;3.17;;;8.20;99.90;;;;;;5073077;28;20174;-93
2022/02/09 08:33:20;;;;;;;2.87;2.40;;;8.30;99.90;;;;;;5017342;28;20179;-93
2022/02/09 08:35:47;;;;;;;4.33;2.90;;;8.30;99.90;;;;;;5016086;28;20187;-91
2022/02/09 08:38:14;;;;;;;4.30;2.53;;;8.30;99.90;;;;;;5016340;28;20190;-93
2022/02/09 08:40:41;;;;;;;7.60;2.50;;;8.30;99.90;;;;;;5032617;28;20207;-92
2022/02/09 08:43:09;;;;;;;5.70;2.60;;;8.30;99.90;;;;;;5015932;28;20190;-93
2022/02/09 08:45:38;;;;;;;3.70;2.23;;;8.30;99.90;;;;;;5048439;28;20194;-92
2022/02/09 08:48:05;;;;;;;3.20;2.60;;;8.40;99.90;;;;;;5015954;28;20266;-93
2022/02/09 08:50:30;;;;;;;5.80;2.90;;;8.40;99.90;;;;;;5031268;28;20181;-93
2022/02/09 08:52:57;;;;;;;6.13;2.73;;;8.50;99.90;;;;;;5072086;28;20170;-92
2022/02/09 08:55:26;;;;;;;5.67;2.90;;;8.50;99.90;;;;;;5072064;28;20565;-92
2022/02/09 08:57:52;;;;;;;3.67;2.80;;;8.50;99.90;;;;;;5055956;28;20178;-92
2022/02/09 09:00:26;;;;;;;6.23;2.87;;;8.50;99.90;;;;;;5051827;28;20232;-91
2022/02/09 09:03:18;;;;;;;5.10;3.00;;;8.50;99.90;;;;;;5052188;28;20265;-91
2022/02/09 09:05:50;;;;;;;4.50;3.23;;;8.60;99.90;;;;;;5036459;28;20190;-93
2022/02/09 09:11:39;;;;;;;4.33;2.90;;;8.70;99.90;;;;;;5036685;28;20166;-92
2022/02/09 10:01:38;;;;;;;7.83;4.50;;;8.20;99.90;;;;;;5045980;28;20205;-93
2022/02/09 10:33:38;;;;;;;5.47;3.20;;;8.50;99.90;;;;;;5035454;28;20625;-93
2022/02/09 10:36:20;;;;;;;5.07;3.00;;;8.50;99.90;;;;;;5050866;28;20191;-92
2022/02/09 10:38:49;;;;;;;3.00;2.70;;;8.60;99.90;;;;;;5050705;28;20167;-92
2022/02/09 10:41:32;;;;;;;7.30;4.20;;;8.60;99.90;;;;;;5050700;28;20272;-92
2022/02/09 10:44:07;;;;;;;3.63;3.00;;;8.60;99.90;;;;;;5050833;28;20190;-91
2022/02/09 10:46:58;;;;;;;3.60;3.10;;;8.70;99.90;;;;;;5050403;28;20182;-94
2022/02/09 10:49:29;;;;;;;3.77;3.00;;;8.60;99.90;;;;;;5030841;28;20175;-93
2022/02/09 10:54:29;;;;;;;4.23;3.70;;;8.50;99.90;;;;;;5015464;28;20156;-94
2022/02/09 10:56:58;;;;;;;4.67;3.87;;;8.50;99.90;;;;;;5014003;28;20205;-93
2022/02/09 10:59:26;;;;;;;9.37;4.77;;;8.40;99.90;;;;;;5014203;28;20172;-92
2022/02/09 11:01:53;;;;;;;4.60;3.93;;;8.40;99.90;;;;;;5013892;28;20180;-92
2022/02/09 11:04:19;;;;;;;5.93;3.73;;;8.40;99.90;;;;;;5014117;28;20175;-91
2022/02/09 11:06:48;;;;;;;9.57;3.93;;;8.40;99.90;;;;;;5013996;28;20183;-94
2022/02/09 11:09:16;;;;;;;4.33;3.60;;;8.40;99.90;;;;;;5014299;28;20171;-92
2022/02/09 11:11:43;;;;;;;5.90;4.17;;;8.40;99.90;;;;;;5014038;28;20234;-92
2022/02/09 11:14:15;;;;;;;4.00;3.10;;;8.40;99.90;;;;;;5022795;28;20229;-92
2022/02/09 11:16:46;;;;;;;3.73;3.20;;;8.50;99.90;;;;;;5033264;28;20182;-92
2022/02/09 11:19:12;;;;;;;4.27;3.23;;;8.60;99.90;;;;;;5033391;28;20218;-94
2022/02/09 11:21:39;;;;;;;4.97;3.27;;;8.70;99.90;;;;;;5035218;28;20277;-92
2022/02/09 11:24:20;;;;;;;4.27;3.17;;;8.70;99.90;;;;;;5061604;28;20228;-92
2022/02/09 11:32:19;;;;;;;4.80;2.90;;;8.90;99.90;;;;;;5034761;28;20632;-93
2022/02/09 11:38:00;;;;;;;3.23;2.93;;;9.00;99.90;;;;;;5049229;28;20516;-95
2022/02/09 11:57:25;;;;;;;3.97;3.30;;;8.70;99.90;;;;;;5038528;28;20226;-94
2022/02/09 12:11:33;;;;;;;4.50;3.60;;;8.60;99.90;;;;;;5037567;28;20189;-94
2022/02/09 12:19:35;;;;;;;4.20;2.80;;;8.90;99.90;;;;;;5017470;28;20655;-95
2022/02/09 12:24:35;;;;;;;2.70;2.50;;;9.10;99.90;;;;;;5017794;28;20175;-94
2022/02/09 12:27:10;;;;;;;2.63;2.43;;;9.10;99.90;;;;;;5016534;28;20237;-95
2022/02/09 12:29:38;;;;;;;2.80;2.60;;;9.10;99.90;;;;;;5026628;28;20209;-95
2022/02/09 12:32:16;;;;;;;3.70;2.17;;;9.10;99.90;;;;;;5035998;28;20640;-95
2022/02/09 12:35:06;;;;;;;3.33;2.07;;;9.10;99.90;;;;;;5036053;28;20632;-94
2022/02/09 12:37:37;;;;;;;2.73;2.30;;;9.10;99.90;;;;;;5052610;28;20601;-96
2022/02/09 12:40:16;;;;;;;2.13;1.90;;;9.10;99.90;;;;;;5052521;28;20269;-95
2022/02/09 12:42:48;;;;;;;2.30;2.10;;;9.20;99.90;;;;;;5035785;28;20181;-94
2022/02/09 12:45:17;;;;;;;2.10;1.90;;;9.10;99.90;;;;;;5052497;28;20170;-95
2022/02/09 12:47:47;;;;;;;2.97;2.00;;;9.10;99.90;;;;;;5052023;28;20201;-94
2022/02/09 12:50:16;;;;;;;3.07;1.80;;;9.20;99.90;;;;;;5052422;28;20221;-94
2022/02/09 12:52:43;;;;;;;2.17;1.97;;;9.20;99.90;;;;;;5066842;28;20197;-95
2022/02/09 12:55:23;;;;;;;2.17;1.63;;;9.20;99.90;;;;;;5071961;28;20177;-95
2022/02/09 12:57:57;;;;;;;1.60;1.50;;;9.20;99.90;;;;;;5072526;28;20600;-94
2022/02/09 13:00:49;;;;;;;1.57;1.47;;;9.30;99.90;;;;;;5058439;28;20229;-96
2022/02/09 13:03:21;;;;;;;2.10;1.60;;;9.30;99.90;;;;;;5035084;28;20559;-95
2022/02/09 13:05:56;;;;;;;1.53;1.43;;;9.30;99.90;;;;;;5035587;28;20198;-95
2022/02/09 13:08:30;;;;;;;2.37;1.50;;;9.30;99.90;;;;;;5035322;28;20559;-96
2022/02/09 13:11:46;;;;;;;1.73;1.33;;;9.20;99.90;;;;;;5037465;28;20549;-94
2022/02/09 13:14:00;;;;;;;2.73;1.20;;;9.20;99.90;;;;;;5038468;28;20329;-95
2022/02/09 13:16:43;;;;;;;6.07;1.87;;;9.20;99.90;;;;;;5052310;28;20182;-96
2022/02/09 14:04:47;;;;;;;2.90;1.83;;;9.40;99.90;;;;;;5036081;28;20213;-93
2022/02/09 14:07:09;;;;;;;2.10;1.90;;;9.40;99.90;;;;;;5035923;28;20174;-94
2022/02/09 14:18:09;;;;;;;2.97;1.93;;;9.40;99.90;;;;;;5035457;28;20182;-92
2022/02/09 14:48:26;;;;;;;2.83;1.70;;;9.40;99.90;;;;;;5035382;28;20613;-95
2022/02/09 14:53:39;;;;;;;2.57;1.90;;;9.30;99.90;;;;;;5049651;28;20202;-95
2022/02/09 14:58:43;;;;;;;2.33;2.10;;;9.20;99.90;;;;;;5055270;28;20162;-96
2022/02/09 15:01:17;;;;;;;2.70;2.37;;;9.30;99.90;;;;;;5070334;28;20219;-96
2022/02/09 15:04:20;;;;;;;2.60;2.33;;;9.20;99.90;;;;;;5070953;28;20568;-95
2022/02/09 15:06:52;;;;;;;3.80;2.30;;;9.20;99.90;;;;;;5054509;28;20208;-96
2022/02/09 15:09:46;;;;;;;2.97;2.30;;;9.10;99.90;;;;;;5064768;28;20198;-96
2022/02/09 15:12:17;;;;;;;3.07;2.77;;;9.00;99.90;;;;;;5036729;28;20265;-96
2022/02/09 15:17:49;;;;;;;2.97;2.77;;;8.90;99.90;;;;;;5040440;28;20585;-96
2022/02/09 15:22:54;;;;;;;5.03;3.17;;;8.70;99.90;;;;;;5040001;28;20158;-96
2022/02/09 15:25:22;;;;;;;3.57;3.27;;;8.70;99.90;;;;;;5037821;28;20609;-96
2022/02/09 15:27:52;;;;;;;4.37;3.23;;;8.60;99.90;;;;;;5037742;28;20622;-95
2022/02/09 15:30:20;;;;;;;3.70;3.30;;;8.60;99.90;;;;;;5038439;28;20182;-96
2022/02/09 15:32:52;;;;;;;3.83;3.50;;;8.50;99.90;;;;;;5037435;28;20185;-96
2022/02/09 15:35:30;;;;;;;4.27;3.87;;;8.50;99.90;;;;;;5038021;28;20194;-95
2022/02/09 15:38:09;;;;;;;4.57;3.90;;;8.50;99.90;;;;;;5037688;28;20178;-95
2022/02/09 15:43:43;;;;;;;7.90;3.90;;;8.50;99.90;;;;;;5038668;28;20186;-96
2022/02/09 16:24:09;;;;;;;2.60;2.27;;;8.80;99.90;;;;;;5036326;28;20162;-96
2022/02/09 16:37:52;;;;;;;3.10;2.43;;;8.80;99.90;;;;;;5037809;28;20166;-96
2022/02/09 16:45:57;;;;;;;4.33;2.77;;;8.80;99.90;;;;;;5037512;28;20169;-96
2022/02/09 16:48:24;;;;;;;3.07;2.43;;;8.70;99.90;;;;;;5036308;28;20179;-96
2022/02/09 16:50:56;;;;;;;2.87;2.50;;;8.80;99.90;;;;;;5052971;28;20182;-95
2022/02/09 17:18:47;;;;;;;3.20;2.17;;;8.70;99.90;;;;;;5036735;28;20174;-93
2022/02/09 17:21:10;;;;;;;3.70;2.30;;;8.60;99.90;;;;;;5017997;28;20263;-93
2022/02/09 17:23:36;;;;;;;3.17;2.60;;;8.60;99.90;;;;;;5022215;28;20178;-94
2022/02/09 17:26:05;;;;;;;3.43;2.60;;;8.60;99.90;;;;;;5055837;28;20205;-94
2022/02/09 17:28:31;;;;;;;3.00;2.33;;;8.60;99.90;;;;;;5051693;28;20174;-94
2022/02/09 17:31:21;;;;;;;3.40;2.70;;;8.60;99.90;;;;;;5051821;28;20178;-94
2022/02/09 17:58:03;;;;;;;6.47;4.17;;;8.60;99.90;;;;;;5016339;28;20182;-94
2022/02/09 18:00:29;;;;;;;4.73;3.93;;;8.60;99.90;;;;;;5031430;28;20214;-95
2022/02/09 18:02:55;;;;;;;4.37;3.97;;;8.60;99.90;;;;;;5031577;28;20652;-94
2022/02/09 18:05:37;;;;;;;5.30;4.03;;;8.60;99.90;;;;;;5025629;28;20190;-94
2022/02/09 18:08:08;;;;;;;7.70;4.23;;;8.50;99.90;;;;;;5051269;28;20171;-93
2022/02/09 18:31:36;;;;;;;6.40;5.60;;;8.50;99.90;;;;;;5015832;28;20182;-94
2022/02/09 18:34:18;;;;;;;6.93;6.20;;;8.50;99.90;;;;;;5043534;28;20186;-94
2022/02/09 18:45:34;;;;;;;9.67;7.80;;;8.50;99.90;;;;;;5012193;28;20182;-94
2022/02/09 19:04:39;;;;;;;9.80;8.90;;;8.50;99.90;;;;;;5012249;28;20187;-91
2022/02/09 19:08:08;;;;;;;10.17;9.17;;;8.50;99.90;;;;;;5054303;28;20197;-94
2022/02/09 19:31:41;;;;;;;9.90;8.13;;;8.40;99.90;;;;;;5038673;28;20185;-94
2022/02/09 19:48:03;;;;;;;11.03;8.60;;;8.40;99.90;;;;;;5019692;28;20233;-93
2022/02/09 19:51:04;;;;;;;11.97;8.33;;;8.40;99.90;;;;;;5033737;28;20183;-92
2022/02/09 19:53:40;;;;;;;11.80;8.03;;;8.40;99.90;;;;;;5027030;28;20186;-93
2022/02/09 19:56:14;;;;;;;9.37;8.37;;;8.40;99.90;;;;;;5064641;28;20174;-92
2022/02/09 19:58:52;;;;;;;8.90;8.00;;;8.40;99.90;;;;;;5073334;28;20269;-92
2022/02/09 20:01:20;;;;;;;10.30;9.30;;;8.40;99.90;;;;;;5073176;28;20216;-92
2022/02/09 20:03:46;;;;;;;9.90;8.83;;;8.40;99.90;;;;;;5071250;28;20208;-93
2022/02/09 20:06:17;;;;;;;10.13;9.10;;;8.40;99.90;;;;;;5036169;28;20182;-93
2022/02/09 20:08:42;;;;;;;10.83;9.27;;;8.40;99.90;;;;;;5035511;28;20189;-93
2022/02/09 20:11:14;;;;;;;10.20;9.20;;;8.40;99.90;;;;;;5036301;28;20272;-93
2022/02/09 20:13:41;;;;;;;10.23;9.23;;;8.40;99.90;;;;;;5036600;28;20177;-93
2022/02/09 20:16:07;;;;;;;10.73;9.37;;;8.40;99.90;;;;;;5036516;28;20183;-93
2022/02/09 20:18:33;;;;;;;11.17;9.80;;;8.30;99.90;;;;;;5036645;28;20230;-93
2022/02/09 20:21:00;;;;;;;11.37;9.40;;;8.40;99.90;;;;;;5035953;28;20214;-94
2022/02/09 20:23:28;;;;;;;9.90;8.90;;;8.40;99.90;;;;;;5052744;28;20185;-93
2022/02/09 20:25:53;;;;;;;12.43;10.10;;;8.40;99.90;;;;;;5055224;28;20505;-94
2022/02/09 20:28:23;;;;;;;12.43;9.73;;;8.30;99.90;;;;;;5072278;28;20174;-94
2022/02/09 20:30:57;;;;;;;12.10;10.23;;;8.30;99.90;;;;;;5055777;28;20191;-94
2022/02/09 20:33:30;;;;;;;11.83;10.17;;;8.30;99.90;;;;;;5033114;28;20178;-93
2022/02/09 20:35:59;;;;;;;12.13;10.30;;;8.30;99.90;;;;;;5038914;28;20262;-93
2022/02/09 20:38:28;;;;;;;13.33;10.37;;;8.40;99.90;;;;;;5035847;28;20224;-94
2022/02/09 20:40:59;;;;;;;16.07;10.50;;;8.30;99.90;;;;;;5051647;28;20217;-93
2022/02/09 20:43:25;;;;;;;12.07;10.87;;;8.30;99.90;;;;;;5035829;28;20183;-93
2022/02/09 20:46:02;;;;;;;13.60;11.47;;;8.30;99.90;;;;;;5036076;28;20525;-93
2022/02/09 20:48:28;;;;;;;12.63;10.90;;;8.30;99.90;;;;;;5035751;28;20181;-94
2022/02/09 20:50:56;;;;;;;13.23;11.10;;;8.30;99.90;;;;;;5035802;28;20179;-93
2022/02/09 20:53:22;;;;;;;11.70;10.47;;;8.30;99.90;;;;;;5052290;28;20221;-94
2022/02/09 20:55:50;;;;;;;13.07;11.70;;;8.30;99.90;;;;;;5052366;28;20186;-94
2022/02/09 20:58:18;;;;;;;12.57;11.27;;;8.30;99.90;;;;;;5050787;28;20277;-93
2022/02/09 21:01:10;;;;;;;13.57;11.97;;;8.20;99.90;;;;;;5052131;28;20202;-94
2022/02/09 21:11:11;;;;;;;14.37;12.63;;;8.20;99.90;;;;;;5036391;28;20229;-94
2022/02/09 21:14:04;;;;;;;14.47;12.77;;;8.20;99.90;;;;;;5051685;28;20194;-94
2022/02/09 21:16:42;;;;;;;15.20;12.27;;;8.20;99.90;;;;;;5035234;28;20220;-94
2022/02/09 21:28:37;;;;;;;14.50;12.93;;;8.20;99.90;;;;;;5036548;28;20209;-94
2022/02/09 21:46:56;;;;;;;16.87;13.17;;;8.20;99.90;;;;;;5016420;28;20171;-94
2022/02/09 21:50:03;;;;;;;17.73;13.90;;;8.20;99.90;;;;;;5015974;28;20532;-96
2022/02/09 22:16:21;;;;;;;17.57;14.00;;;8.10;99.90;;;;;;5001496;28;20652;-94
2022/02/09 22:54:34;;;;;;;15.60;13.00;;;8.10;99.90;;;;;;5035037;28;20317;-95
2022/02/09 22:57:00;;;;;;;18.27;13.77;;;8.10;99.90;;;;;;5030641;28;20183;-94
2022/02/09 23:02:12;;;;;;;17.57;14.43;;;8.10;99.90;;;;;;5015114;28;20195;-94
2022/02/09 23:04:59;;;;;;;19.67;14.97;;;8.10;99.90;;;;;;5015313;28;20159;-96
2022/02/09 23:07:51;;;;;;;21.13;14.93;;;8.10;99.90;;;;;;5030561;28;20573;-94
2022/02/09 23:13:10;;;;;;;19.67;13.70;;;8.10;99.90;;;;;;5015656;28;20222;-94
2022/02/09 23:16:03;;;;;;;19.10;14.30;;;8.10;99.90;;;;;;5048396;28;20192;-94
2022/02/09 23:23:47;;;;;;;18.33;14.17;;;8.10;99.90;;;;;;5034982;28;20237;-95
